Swanton, Nebraska
Current Conditions -  °F | °C
As of 3:15 AM on Monday 22 Dec 2014 (Local Time) from KBIE Reporting Station
Drizzle Drizzle  
Wind Chill: 36°   Ceiling: 500
Heat Index: 42°   Visibility: 7mi
Dew Point: 41°   Wind: 12mph
Humidity: 97%   Direction: 170°S
Pressure: 29.57"   Gusts: NA
Location:  40.38°N, 97.08°W
Report Text: KBIE 220915Z AUTO 17010KT 7SM -DZ OVC005 06/05 A2957 RMK AO2 T00560052
Loading
Personal Weather Stations






























Interactive Weather Map New forecast layout! Learn more

10-Day Weather Forecast

Advertisements
Track Severe Weather on mobile